sensor_id;sensor_type;location;lat;lon;timestamp;P1;durP1;ratioP1;P2;durP2;ratioP2
9815;SDS011;4947;44.526;11.360;2023-04-06T03:35:56;6.30;;;4.90;;
9815;SDS011;4947;44.526;11.360;2023-04-06T03:38:24;8.20;;;4.83;;
9815;SDS011;4947;44.526;11.360;2023-04-06T03:40:53;4.90;;;4.33;;
9815;SDS011;4947;44.526;11.360;2023-04-06T03:43:21;9.40;;;5.30;;
9815;SDS011;4947;44.526;11.360;2023-04-06T03:45:48;6.73;;;4.83;;
9815;SDS011;4947;44.526;11.360;2023-04-06T03:48:17;8.10;;;4.33;;
9815;SDS011;4947;44.526;11.360;2023-04-06T03:50:46;6.07;;;5.00;;
9815;SDS011;4947;44.526;11.360;2023-04-06T03:53:14;12.17;;;5.40;;
9815;SDS011;4947;44.526;11.360;2023-04-06T03:55:41;9.97;;;5.57;;
9815;SDS011;4947;44.526;11.360;2023-04-06T03:58:10;9.33;;;6.10;;
9815;SDS011;4947;44.526;11.360;2023-04-06T04:00:38;7.77;;;5.50;;
9815;SDS011;4947;44.526;11.360;2023-04-06T04:03:05;9.23;;;5.67;;
9815;SDS011;4947;44.526;11.360;2023-04-06T08:04:29;5.93;;;3.45;;
9815;SDS011;4947;44.526;11.360;2023-04-06T08:06:57;7.72;;;3.65;;
9815;SDS011;4947;44.526;11.360;2023-04-06T08:09:25;3.85;;;3.42;;
9815;SDS011;4947;44.526;11.360;2023-04-06T08:11:56;6.53;;;3.65;;
9815;SDS011;4947;44.526;11.360;2023-04-06T08:14:24;3.90;;;3.35;;
9815;SDS011;4947;44.526;11.360;2023-04-06T08:16:53;3.45;;;3.15;;
9815;SDS011;4947;44.526;11.360;2023-04-06T08:19:21;3.47;;;3.17;;
9815;SDS011;4947;44.526;11.360;2023-04-06T08:21:48;3.85;;;3.35;;
9815;SDS011;4947;44.526;11.360;2023-04-06T08:24:16;5.32;;;3.08;;
9815;SDS011;4947;44.526;11.360;2023-04-06T08:26:44;4.38;;;3.25;;
9815;SDS011;4947;44.526;11.360;2023-04-06T08:29:12;5.55;;;3.10;;
9815;SDS011;4947;44.526;11.360;2023-04-06T08:31:39;5.88;;;3.63;;
9815;SDS011;4947;44.526;11.360;2023-04-06T08:34:09;6.57;;;3.03;;
9815;SDS011;4947;44.526;11.360;2023-04-06T08:36:36;4.53;;;2.97;;
9815;SDS011;4947;44.526;11.360;2023-04-06T08:39:04;4.32;;;3.50;;
9815;SDS011;4947;44.526;11.360;2023-04-06T08:41:32;6.65;;;3.22;;
9815;SDS011;4947;44.526;11.360;2023-04-06T08:43:59;4.50;;;2.92;;
9815;SDS011;4947;44.526;11.360;2023-04-06T08:46:28;3.80;;;2.60;;
9815;SDS011;4947;44.526;11.360;2023-04-06T08:48:57;8.32;;;3.42;;
9815;SDS011;4947;44.526;11.360;2023-04-06T08:51:26;4.05;;;3.30;;
9815;SDS011;4947;44.526;11.360;2023-04-06T08:53:55;3.58;;;3.28;;
9815;SDS011;4947;44.526;11.360;2023-04-06T08:56:23;5.38;;;3.08;;
9815;SDS011;4947;44.526;11.360;2023-04-06T08:58:52;5.95;;;3.28;;
9815;SDS011;4947;44.526;11.360;2023-04-06T09:01:20;4.53;;;2.67;;
9815;SDS011;4947;44.526;11.360;2023-04-06T09:03:50;4.07;;;2.72;;
9815;SDS011;4947;44.526;11.360;2023-04-06T09:06:22;6.90;;;2.85;;
9815;SDS011;4947;44.526;11.360;2023-04-06T09:08:51;6.05;;;3.13;;
9815;SDS011;4947;44.526;11.360;2023-04-06T09:11:19;9.27;;;2.75;;
9815;SDS011;4947;44.526;11.360;2023-04-06T09:13:47;4.25;;;2.85;;
9815;SDS011;4947;44.526;11.360;2023-04-06T09:16:16;2.75;;;2.08;;
9815;SDS011;4947;44.526;11.360;2023-04-06T09:18:44;2.30;;;2.10;;
9815;SDS011;4947;44.526;11.360;2023-04-06T09:21:16;8.05;;;2.67;;
9815;SDS011;4947;44.526;11.360;2023-04-06T09:23:44;2.50;;;2.17;;
9815;SDS011;4947;44.526;11.360;2023-04-06T09:26:15;3.63;;;2.88;;
9815;SDS011;4947;44.526;11.360;2023-04-06T09:28:45;4.50;;;2.80;;
9815;SDS011;4947;44.526;11.360;2023-04-06T09:31:14;3.97;;;2.78;;
9815;SDS011;4947;44.526;11.360;2023-04-06T09:33:44;2.92;;;2.63;;
9815;SDS011;4947;44.526;11.360;2023-04-06T09:36:12;4.30;;;3.10;;
9815;SDS011;4947;44.526;11.360;2023-04-06T09:38:51;5.25;;;3.00;;
9815;SDS011;4947;44.526;11.360;2023-04-06T09:41:22;3.70;;;2.78;;
9815;SDS011;4947;44.526;11.360;2023-04-06T09:43:51;5.25;;;2.85;;
9815;SDS011;4947;44.526;11.360;2023-04-06T09:46:20;3.85;;;3.05;;
9815;SDS011;4947;44.526;11.360;2023-04-06T09:48:49;4.90;;;3.50;;
9815;SDS011;4947;44.526;11.360;2023-04-06T09:51:19;5.70;;;3.10;;
9815;SDS011;4947;44.526;11.360;2023-04-06T09:53:48;5.13;;;3.03;;
9815;SDS011;4947;44.526;11.360;2023-04-06T09:56:20;4.43;;;3.05;;
9815;SDS011;4947;44.526;11.360;2023-04-06T09:58:56;5.30;;;3.65;;
9815;SDS011;4947;44.526;11.360;2023-04-06T10:01:30;4.53;;;3.15;;
9815;SDS011;4947;44.526;11.360;2023-04-06T10:04:03;6.78;;;3.28;;
9815;SDS011;4947;44.526;11.360;2023-04-06T10:06:39;7.05;;;3.25;;
9815;SDS011;4947;44.526;11.360;2023-04-06T10:09:06;7.15;;;3.55;;
9815;SDS011;4947;44.526;11.360;2023-04-06T10:11:36;4.70;;;3.42;;
9815;SDS011;4947;44.526;11.360;2023-04-06T10:14:04;4.63;;;3.80;;
9815;SDS011;4947;44.526;11.360;2023-04-06T10:16:33;5.18;;;3.78;;
9815;SDS011;4947;44.526;11.360;2023-04-06T10:19:02;3.83;;;3.45;;
9815;SDS011;4947;44.526;11.360;2023-04-06T10:21:35;8.13;;;4.65;;
9815;SDS011;4947;44.526;11.360;2023-04-06T10:24:06;7.03;;;4.22;;
9815;SDS011;4947;44.526;11.360;2023-04-06T10:26:38;4.97;;;4.10;;
9815;SDS011;4947;44.526;11.360;2023-04-06T10:29:06;5.13;;;3.85;;
9815;SDS011;4947;44.526;11.360;2023-04-06T10:31:39;4.88;;;4.28;;
9815;SDS011;4947;44.526;11.360;2023-04-06T10:34:14;5.25;;;4.00;;
9815;SDS011;4947;44.526;11.360;2023-04-06T10:36:41;4.95;;;3.65;;
9815;SDS011;4947;44.526;11.360;2023-04-06T10:39:09;7.07;;;3.65;;
9815;SDS011;4947;44.526;11.360;2023-04-06T10:41:42;5.35;;;4.40;;
9815;SDS011;4947;44.526;11.360;2023-04-06T10:44:17;5.15;;;4.15;;
9815;SDS011;4947;44.526;11.360;2023-04-06T10:46:52;6.32;;;4.50;;
9815;SDS011;4947;44.526;11.360;2023-04-06T10:49:23;5.50;;;4.43;;
9815;SDS011;4947;44.526;11.360;2023-04-06T10:51:52;9.25;;;4.70;;
9815;SDS011;4947;44.526;11.360;2023-04-06T10:54:21;6.20;;;4.43;;
9815;SDS011;4947;44.526;11.360;2023-04-06T10:56:51;7.13;;;4.35;;
9815;SDS011;4947;44.526;11.360;2023-04-06T10:59:19;5.32;;;4.10;;
9815;SDS011;4947;44.526;11.360;2023-04-06T11:01:47;5.55;;;4.60;;
9815;SDS011;4947;44.526;11.360;2023-04-06T11:04:15;6.65;;;3.83;;
9815;SDS011;4947;44.526;11.360;2023-04-06T11:06:46;7.45;;;4.88;;
9815;SDS011;4947;44.526;11.360;2023-04-06T11:09:22;6.40;;;3.83;;
9815;SDS011;4947;44.526;11.360;2023-04-06T11:11:53;4.97;;;4.38;;
9815;SDS011;4947;44.526;11.360;2023-04-06T11:14:21;5.03;;;3.85;;
9815;SDS011;4947;44.526;11.360;2023-04-06T11:16:51;6.28;;;4.68;;
9815;SDS011;4947;44.526;11.360;2023-04-06T11:19:19;7.43;;;4.20;;
9815;SDS011;4947;44.526;11.360;2023-04-06T11:21:47;6.10;;;4.53;;
9815;SDS011;4947;44.526;11.360;2023-04-06T11:24:16;9.40;;;4.65;;
9815;SDS011;4947;44.526;11.360;2023-04-06T11:26:45;6.68;;;4.40;;
9815;SDS011;4947;44.526;11.360;2023-04-06T11:29:17;5.82;;;4.43;;
9815;SDS011;4947;44.526;11.360;2023-04-06T11:31:50;6.10;;;4.40;;
9815;SDS011;4947;44.526;11.360;2023-04-06T11:34:18;4.95;;;3.90;;
9815;SDS011;4947;44.526;11.360;2023-04-06T11:36:48;6.15;;;4.50;;
9815;SDS011;4947;44.526;11.360;2023-04-06T11:39:21;7.40;;;4.25;;
9815;SDS011;4947;44.526;11.360;2023-04-06T11:41:53;7.68;;;4.70;;
9815;SDS011;4947;44.526;11.360;2023-04-06T11:44:39;9.65;;;5.05;;
9815;SDS011;4947;44.526;11.360;2023-04-06T11:47:11;6.35;;;4.80;;
9815;SDS011;4947;44.526;11.360;2023-04-06T11:49:39;8.30;;;4.53;;
9815;SDS011;4947;44.526;11.360;2023-04-06T11:52:15;7.13;;;4.65;;
9815;SDS011;4947;44.526;11.360;2023-04-06T11:54:44;9.85;;;4.40;;
9815;SDS011;4947;44.526;11.360;2023-04-06T11:57:12;6.55;;;5.03;;
9815;SDS011;4947;44.526;11.360;2023-04-06T11:59:41;8.45;;;4.75;;
9815;SDS011;4947;44.526;11.360;2023-04-06T12:02:13;6.82;;;4.50;;
9815;SDS011;4947;44.526;11.360;2023-04-06T12:04:44;6.53;;;4.93;;
9815;SDS011;4947;44.526;11.360;2023-04-06T12:07:12;9.18;;;5.28;;
9815;SDS011;4947;44.526;11.360;2023-04-06T12:09:39;6.72;;;4.40;;
9815;SDS011;4947;44.526;11.360;2023-04-06T12:12:08;6.65;;;5.05;;
9815;SDS011;4947;44.526;11.360;2023-04-06T12:14:36;6.43;;;4.80;;
9815;SDS011;4947;44.526;11.360;2023-04-06T12:17:06;5.78;;;4.47;;
9815;SDS011;4947;44.526;11.360;2023-04-06T12:19:33;7.40;;;5.03;;
9815;SDS011;4947;44.526;11.360;2023-04-06T12:22:01;6.95;;;5.20;;
9815;SDS011;4947;44.526;11.360;2023-04-06T12:24:29;7.13;;;4.95;;
9815;SDS011;4947;44.526;11.360;2023-04-06T12:26:56;5.45;;;4.32;;
9815;SDS011;4947;44.526;11.360;2023-04-06T12:29:24;8.25;;;5.18;;
9815;SDS011;4947;44.526;11.360;2023-04-06T12:31:54;7.10;;;4.72;;
9815;SDS011;4947;44.526;11.360;2023-04-06T12:34:23;8.70;;;5.18;;
9815;SDS011;4947;44.526;11.360;2023-04-06T12:36:52;6.38;;;4.93;;
9815;SDS011;4947;44.526;11.360;2023-04-06T12:39:20;8.85;;;5.13;;
9815;SDS011;4947;44.526;11.360;2023-04-06T12:41:47;8.23;;;4.65;;
9815;SDS011;4947;44.526;11.360;2023-04-06T12:44:15;10.05;;;4.95;;
9815;SDS011;4947;44.526;11.360;2023-04-06T12:46:42;6.78;;;5.07;;
9815;SDS011;4947;44.526;11.360;2023-04-06T12:49:10;5.93;;;4.65;;
9815;SDS011;4947;44.526;11.360;2023-04-06T12:51:39;10.88;;;5.60;;
9815;SDS011;4947;44.526;11.360;2023-04-06T12:54:07;9.35;;;5.20;;
9815;SDS011;4947;44.526;11.360;2023-04-06T12:56:34;7.38;;;5.03;;
9815;SDS011;4947;44.526;11.360;2023-04-06T12:59:02;7.05;;;4.85;;
9815;SDS011;4947;44.526;11.360;2023-04-06T13:01:30;6.63;;;4.78;;
9815;SDS011;4947;44.526;11.360;2023-04-06T13:03:58;6.78;;;4.55;;
9815;SDS011;4947;44.526;11.360;2023-04-06T13:06:28;5.10;;;4.60;;
9815;SDS011;4947;44.526;11.360;2023-04-06T13:08:57;8.38;;;4.80;;
9815;SDS011;4947;44.526;11.360;2023-04-06T13:11:25;6.80;;;4.50;;
9815;SDS011;4947;44.526;11.360;2023-04-06T13:13:53;6.55;;;5.10;;
9815;SDS011;4947;44.526;11.360;2023-04-06T13:16:21;7.13;;;5.03;;
9815;SDS011;4947;44.526;11.360;2023-04-06T13:18:49;8.55;;;5.05;;
9815;SDS011;4947;44.526;11.360;2023-04-06T13:21:17;8.07;;;4.57;;
9815;SDS011;4947;44.526;11.360;2023-04-06T13:23:45;6.82;;;4.35;;
9815;SDS011;4947;44.526;11.360;2023-04-06T13:26:16;5.82;;;4.45;;
9815;SDS011;4947;44.526;11.360;2023-04-06T13:28:44;7.25;;;4.68;;
9815;SDS011;4947;44.526;11.360;2023-04-06T13:31:11;8.32;;;4.60;;
9815;SDS011;4947;44.526;11.360;2023-04-06T13:33:39;8.98;;;5.15;;
9815;SDS011;4947;44.526;11.360;2023-04-06T13:36:07;5.78;;;4.43;;
9815;SDS011;4947;44.526;11.360;2023-04-06T13:38:34;4.93;;;4.28;;
9815;SDS011;4947;44.526;11.360;2023-04-06T13:41:03;10.55;;;5.53;;
9815;SDS011;4947;44.526;11.360;2023-04-06T13:43:32;8.60;;;4.95;;
9815;SDS011;4947;44.526;11.360;2023-04-06T13:46:00;6.85;;;4.68;;
9815;SDS011;4947;44.526;11.360;2023-04-06T13:48:28;5.25;;;4.13;;
9815;SDS011;4947;44.526;11.360;2023-04-06T13:50:57;6.07;;;3.90;;
9815;SDS011;4947;44.526;11.360;2023-04-06T13:53:24;5.25;;;4.72;;
9815;SDS011;4947;44.526;11.360;2023-04-06T13:55:52;10.50;;;4.85;;
9815;SDS011;4947;44.526;11.360;2023-04-06T13:58:20;9.85;;;4.53;;
9815;SDS011;4947;44.526;11.360;2023-04-06T14:00:49;7.38;;;5.05;;
9815;SDS011;4947;44.526;11.360;2023-04-06T14:03:17;5.15;;;4.43;;
9815;SDS011;4947;44.526;11.360;2023-04-06T14:05:45;5.97;;;4.65;;
9815;SDS011;4947;44.526;11.360;2023-04-06T14:08:13;6.60;;;4.55;;
9815;SDS011;4947;44.526;11.360;2023-04-06T14:10:43;6.50;;;4.68;;
9815;SDS011;4947;44.526;11.360;2023-04-06T14:13:10;11.15;;;7.38;;
9815;SDS011;4947;44.526;11.360;2023-04-06T14:15:38;7.90;;;4.72;;
9815;SDS011;4947;44.526;11.360;2023-04-06T14:18:07;6.13;;;4.47;;
9815;SDS011;4947;44.526;11.360;2023-04-06T14:20:35;4.70;;;4.22;;
9815;SDS011;4947;44.526;11.360;2023-04-06T14:23:02;5.97;;;4.75;;
9815;SDS011;4947;44.526;11.360;2023-04-06T14:25:30;7.57;;;4.70;;
9815;SDS011;4947;44.526;11.360;2023-04-06T14:27:59;7.70;;;5.43;;
9815;SDS011;4947;44.526;11.360;2023-04-06T14:30:27;7.78;;;4.88;;
9815;SDS011;4947;44.526;11.360;2023-04-06T14:32:56;5.15;;;4.05;;
9815;SDS011;4947;44.526;11.360;2023-04-06T14:35:26;5.97;;;4.10;;
9815;SDS011;4947;44.526;11.360;2023-04-06T14:37:53;6.38;;;4.60;;
9815;SDS011;4947;44.526;11.360;2023-04-06T14:40:25;5.85;;;4.15;;
9815;SDS011;4947;44.526;11.360;2023-04-06T14:42:52;5.05;;;4.40;;
9815;SDS011;4947;44.526;11.360;2023-04-06T14:45:20;5.53;;;3.90;;
9815;SDS011;4947;44.526;11.360;2023-04-06T14:47:55;6.75;;;4.60;;
9815;SDS011;4947;44.526;11.360;2023-04-06T14:50:22;6.90;;;4.65;;
9815;SDS011;4947;44.526;11.360;2023-04-06T14:52:51;8.52;;;4.40;;
9815;SDS011;4947;44.526;11.360;2023-04-06T14:55:19;5.47;;;4.53;;
9815;SDS011;4947;44.526;11.360;2023-04-06T14:57:46;8.20;;;4.72;;
9815;SDS011;4947;44.526;11.360;2023-04-06T15:00:14;7.72;;;4.10;;
9815;SDS011;4947;44.526;11.360;2023-04-06T15:02:42;5.18;;;4.68;;
9815;SDS011;4947;44.526;11.360;2023-04-06T15:05:10;6.13;;;4.20;;
9815;SDS011;4947;44.526;11.360;2023-04-06T15:07:39;6.78;;;4.55;;
9815;SDS011;4947;44.526;11.360;2023-04-06T15:10:09;6.35;;;4.45;;
9815;SDS011;4947;44.526;11.360;2023-04-06T15:12:38;7.32;;;5.30;;
9815;SDS011;4947;44.526;11.360;2023-04-06T15:15:14;7.78;;;4.93;;
9815;SDS011;4947;44.526;11.360;2023-04-06T15:17:42;9.05;;;5.28;;
9815;SDS011;4947;44.526;11.360;2023-04-06T15:20:09;7.00;;;4.68;;
9815;SDS011;4947;44.526;11.360;2023-04-06T15:22:45;5.47;;;4.43;;
9815;SDS011;4947;44.526;11.360;2023-04-06T15:25:14;9.60;;;4.68;;
9815;SDS011;4947;44.526;11.360;2023-04-06T15:27:42;6.18;;;4.95;;
9815;SDS011;4947;44.526;11.360;2023-04-06T15:30:09;6.38;;;5.10;;
9815;SDS011;4947;44.526;11.360;2023-04-06T15:32:37;5.88;;;4.45;;
9815;SDS011;4947;44.526;11.360;2023-04-06T15:35:08;5.88;;;4.53;;
9815;SDS011;4947;44.526;11.360;2023-04-06T15:37:39;10.52;;;4.57;;
9815;SDS011;4947;44.526;11.360;2023-04-06T15:40:08;7.45;;;5.65;;
9815;SDS011;4947;44.526;11.360;2023-04-06T15:42:39;8.27;;;5.18;;
9815;SDS011;4947;44.526;11.360;2023-04-06T15:45:07;6.90;;;4.40;;
9815;SDS011;4947;44.526;11.360;2023-04-06T15:47:36;7.32;;;4.53;;
9815;SDS011;4947;44.526;11.360;2023-04-06T15:50:04;6.53;;;5.30;;
9815;SDS011;4947;44.526;11.360;2023-04-06T15:52:32;16.08;;;5.40;;
9815;SDS011;4947;44.526;11.360;2023-04-06T15:55:02;6.78;;;5.10;;
9815;SDS011;4947;44.526;11.360;2023-04-06T15:57:30;7.93;;;5.07;;
9815;SDS011;4947;44.526;11.360;2023-04-06T15:59:59;8.15;;;4.60;;
9815;SDS011;4947;44.526;11.360;2023-04-06T16:02:27;6.10;;;4.80;;
9815;SDS011;4947;44.526;11.360;2023-04-06T16:04:54;6.97;;;4.80;;
9815;SDS011;4947;44.526;11.360;2023-04-06T16:07:22;8.73;;;4.85;;
9815;SDS011;4947;44.526;11.360;2023-04-06T16:09:50;7.90;;;5.30;;
9815;SDS011;4947;44.526;11.360;2023-04-06T16:12:17;6.65;;;5.07;;
9815;SDS011;4947;44.526;11.360;2023-04-06T16:14:46;6.05;;;4.15;;
9815;SDS011;4947;44.526;11.360;2023-04-06T16:17:15;8.82;;;4.60;;
9815;SDS011;4947;44.526;11.360;2023-04-06T16:19:43;5.75;;;4.80;;
9815;SDS011;4947;44.526;11.360;2023-04-06T16:22:14;8.00;;;4.85;;
9815;SDS011;4947;44.526;11.360;2023-04-06T16:24:42;6.75;;;4.80;;
9815;SDS011;4947;44.526;11.360;2023-04-06T16:27:09;7.25;;;4.80;;
9815;SDS011;4947;44.526;11.360;2023-04-06T16:29:37;5.57;;;4.50;;
9815;SDS011;4947;44.526;11.360;2023-04-06T16:32:04;9.02;;;5.28;;
9815;SDS011;4947;44.526;11.360;2023-04-06T16:34:33;5.65;;;4.72;;
9815;SDS011;4947;44.526;11.360;2023-04-06T16:37:00;6.70;;;4.70;;
9815;SDS011;4947;44.526;11.360;2023-04-06T16:39:29;6.13;;;4.88;;
9815;SDS011;4947;44.526;11.360;2023-04-06T16:41:56;7.95;;;4.82;;
9815;SDS011;4947;44.526;11.360;2023-04-06T16:44:24;7.75;;;4.15;;
9815;SDS011;4947;44.526;11.360;2023-04-06T16:46:52;6.10;;;4.00;;
9815;SDS011;4947;44.526;11.360;2023-04-06T16:49:19;5.78;;;4.70;;
9815;SDS011;4947;44.526;11.360;2023-04-06T16:51:48;7.93;;;7.18;;
9815;SDS011;4947;44.526;11.360;2023-04-06T16:54:16;9.13;;;5.68;;
9815;SDS011;4947;44.526;11.360;2023-04-06T16:56:43;8.05;;;4.90;;
9815;SDS011;4947;44.526;11.360;2023-04-06T16:59:10;8.52;;;6.03;;
9815;SDS011;4947;44.526;11.360;2023-04-06T17:01:39;7.95;;;5.18;;
9815;SDS011;4947;44.526;11.360;2023-04-06T17:04:07;7.93;;;4.80;;
9815;SDS011;4947;44.526;11.360;2023-04-06T17:06:38;8.32;;;5.20;;
9815;SDS011;4947;44.526;11.360;2023-04-06T17:09:07;7.15;;;5.57;;
9815;SDS011;4947;44.526;11.360;2023-04-06T17:11:35;8.32;;;5.22;;
9815;SDS011;4947;44.526;11.360;2023-04-06T17:14:03;6.75;;;5.32;;
9815;SDS011;4947;44.526;11.360;2023-04-06T17:16:30;7.47;;;4.75;;
9815;SDS011;4947;44.526;11.360;2023-04-06T17:18:58;11.43;;;5.43;;
9815;SDS011;4947;44.526;11.360;2023-04-06T17:21:26;9.77;;;6.05;;
9815;SDS011;4947;44.526;11.360;2023-04-06T17:23:54;7.35;;;5.45;;
9815;SDS011;4947;44.526;11.360;2023-04-06T17:26:23;6.68;;;4.82;;
9815;SDS011;4947;44.526;11.360;2023-04-06T17:28:51;9.75;;;5.07;;
9815;SDS011;4947;44.526;11.360;2023-04-06T17:31:18;9.77;;;5.50;;
9815;SDS011;4947;44.526;11.360;2023-04-06T17:33:46;8.02;;;5.07;;
9815;SDS011;4947;44.526;11.360;2023-04-06T17:36:13;9.38;;;4.80;;
9815;SDS011;4947;44.526;11.360;2023-04-06T17:38:41;5.97;;;4.85;;
9815;SDS011;4947;44.526;11.360;2023-04-06T17:41:10;8.13;;;5.45;;
9815;SDS011;4947;44.526;11.360;2023-04-06T17:43:39;8.07;;;4.95;;
9815;SDS011;4947;44.526;11.360;2023-04-06T17:46:06;8.07;;;5.45;;
9815;SDS011;4947;44.526;11.360;2023-04-06T17:48:34;7.40;;;4.85;;
9815;SDS011;4947;44.526;11.360;2023-04-06T17:51:02;8.75;;;5.28;;
9815;SDS011;4947;44.526;11.360;2023-04-06T17:53:29;7.13;;;5.10;;
9815;SDS011;4947;44.526;11.360;2023-04-06T17:56:00;8.57;;;5.38;;
9815;SDS011;4947;44.526;11.360;2023-04-06T17:58:28;8.25;;;5.38;;
9815;SDS011;4947;44.526;11.360;2023-04-06T18:00:57;13.18;;;5.47;;
9815;SDS011;4947;44.526;11.360;2023-04-06T18:03:24;7.55;;;4.93;;
9815;SDS011;4947;44.526;11.360;2023-04-06T18:05:54;7.95;;;5.07;;
9815;SDS011;4947;44.526;11.360;2023-04-06T18:08:21;8.75;;;4.82;;
9815;SDS011;4947;44.526;11.360;2023-04-06T18:10:48;11.20;;;5.57;;
9815;SDS011;4947;44.526;11.360;2023-04-06T18:13:16;8.38;;;5.07;;
9815;SDS011;4947;44.526;11.360;2023-04-06T18:15:44;8.32;;;5.72;;
9815;SDS011;4947;44.526;11.360;2023-04-06T18:18:13;9.10;;;5.18;;
9815;SDS011;4947;44.526;11.360;2023-04-06T18:20:41;10.27;;;6.10;;
9815;SDS011;4947;44.526;11.360;2023-04-06T18:23:08;10.15;;;6.22;;
9815;SDS011;4947;44.526;11.360;2023-04-06T18:25:37;9.30;;;5.35;;
9815;SDS011;4947;44.526;11.360;2023-04-06T18:28:04;9.95;;;5.43;;
9815;SDS011;4947;44.526;11.360;2023-04-06T18:30:32;10.80;;;5.18;;
9815;SDS011;4947;44.526;11.360;2023-04-06T18:33:00;9.80;;;5.95;;
9815;SDS011;4947;44.526;11.360;2023-04-06T18:35:29;10.05;;;5.88;;
9815;SDS011;4947;44.526;11.360;2023-04-06T18:37:56;10.13;;;5.57;;
9815;SDS011;4947;44.526;11.360;2023-04-06T18:40:31;8.05;;;5.43;;
9815;SDS011;4947;44.526;11.360;2023-04-06T18:42:59;12.23;;;5.72;;
9815;SDS011;4947;44.526;11.360;2023-04-06T18:45:27;11.52;;;5.18;;
9815;SDS011;4947;44.526;11.360;2023-04-06T18:47:57;12.63;;;5.32;;
9815;SDS011;4947;44.526;11.360;2023-04-06T18:50:25;11.98;;;5.80;;
9815;SDS011;4947;44.526;11.360;2023-04-06T18:52:54;11.45;;;5.28;;
9815;SDS011;4947;44.526;11.360;2023-04-06T18:55:21;10.57;;;5.82;;
9815;SDS011;4947;44.526;11.360;2023-04-06T18:57:49;13.45;;;7.40;;
9815;SDS011;4947;44.526;11.360;2023-04-06T19:00:17;14.60;;;7.55;;
9815;SDS011;4947;44.526;11.360;2023-04-06T19:02:45;11.77;;;6.57;;
9815;SDS011;4947;44.526;11.360;2023-04-06T19:05:12;11.60;;;6.82;;
9815;SDS011;4947;44.526;11.360;2023-04-06T19:07:40;9.25;;;6.00;;
9815;SDS011;4947;44.526;11.360;2023-04-06T19:10:13;10.43;;;6.40;;
9815;SDS011;4947;44.526;11.360;2023-04-06T19:12:40;15.90;;;6.57;;
9815;SDS011;4947;44.526;11.360;2023-04-06T19:15:08;13.45;;;6.80;;
9815;SDS011;4947;44.526;11.360;2023-04-06T19:17:38;14.90;;;7.47;;
9815;SDS011;4947;44.526;11.360;2023-04-06T19:20:06;21.50;;;6.65;;
9815;SDS011;4947;44.526;11.360;2023-04-06T19:22:34;11.73;;;6.00;;
9815;SDS011;4947;44.526;11.360;2023-04-06T19:25:02;13.32;;;6.13;;
9815;SDS011;4947;44.526;11.360;2023-04-06T19:27:31;15.25;;;7.03;;
9815;SDS011;4947;44.526;11.360;2023-04-06T19:29:58;14.10;;;6.82;;
9815;SDS011;4947;44.526;11.360;2023-04-06T19:32:26;16.45;;;6.72;;
9815;SDS011;4947;44.526;11.360;2023-04-06T19:34:54;11.52;;;6.88;;
9815;SDS011;4947;44.526;11.360;2023-04-06T19:37:21;12.20;;;7.30;;
9815;SDS011;4947;44.526;11.360;2023-04-06T19:39:49;11.02;;;7.07;;
9815;SDS011;4947;44.526;11.360;2023-04-06T19:42:16;20.98;;;7.65;;
9815;SDS011;4947;44.526;11.360;2023-04-06T19:44:47;12.88;;;8.02;;
9815;SDS011;4947;44.526;11.360;2023-04-06T19:47:14;13.55;;;7.03;;
9815;SDS011;4947;44.526;11.360;2023-04-06T19:49:41;15.65;;;7.95;;
9815;SDS011;4947;44.526;11.360;2023-04-06T19:52:09;15.85;;;7.45;;
9815;SDS011;4947;44.526;11.360;2023-04-06T19:54:39;20.90;;;7.20;;
9815;SDS011;4947;44.526;11.360;2023-04-06T19:57:06;17.40;;;7.60;;
9815;SDS011;4947;44.526;11.360;2023-04-06T19:59:34;16.63;;;7.72;;
9815;SDS011;4947;44.526;11.360;2023-04-06T20:02:03;15.48;;;7.80;;
9815;SDS011;4947;44.526;11.360;2023-04-06T20:04:31;16.13;;;7.80;;
9815;SDS011;4947;44.526;11.360;2023-04-06T20:06:59;11.23;;;6.75;;
9815;SDS011;4947;44.526;11.360;2023-04-06T20:09:26;13.38;;;7.57;;
9815;SDS011;4947;44.526;11.360;2023-04-06T20:11:54;15.13;;;7.10;;
9815;SDS011;4947;44.526;11.360;2023-04-06T20:14:21;20.45;;;8.32;;
9815;SDS011;4947;44.526;11.360;2023-04-06T20:16:49;15.18;;;8.27;;
9815;SDS011;4947;44.526;11.360;2023-04-06T20:19:18;11.30;;;7.68;;
9815;SDS011;4947;44.526;11.360;2023-04-06T20:21:46;14.38;;;6.78;;
9815;SDS011;4947;44.526;11.360;2023-04-06T20:24:13;15.43;;;7.55;;
9815;SDS011;4947;44.526;11.360;2023-04-06T20:26:41;11.15;;;7.00;;
9815;SDS011;4947;44.526;11.360;2023-04-06T20:29:09;12.55;;;7.40;;
9815;SDS011;4947;44.526;11.360;2023-04-06T20:31:36;13.20;;;7.60;;
9815;SDS011;4947;44.526;11.360;2023-04-06T20:34:04;16.15;;;7.70;;
9815;SDS011;4947;44.526;11.360;2023-04-06T20:36:33;16.27;;;7.25;;
9815;SDS011;4947;44.526;11.360;2023-04-06T20:39:00;11.32;;;7.07;;
9815;SDS011;4947;44.526;11.360;2023-04-06T20:41:28;19.17;;;11.02;;
9815;SDS011;4947;44.526;11.360;2023-04-06T20:43:56;12.85;;;7.60;;
9815;SDS011;4947;44.526;11.360;2023-04-06T20:46:24;13.13;;;7.25;;
9815;SDS011;4947;44.526;11.360;2023-04-06T20:48:51;21.05;;;7.22;;
9815;SDS011;4947;44.526;11.360;2023-04-06T20:51:18;14.20;;;7.78;;
9815;SDS011;4947;44.526;11.360;2023-04-06T20:53:49;14.90;;;7.25;;
9815;SDS011;4947;44.526;11.360;2023-04-06T20:56:16;14.15;;;7.18;;
9815;SDS011;4947;44.526;11.360;2023-04-06T20:58:44;12.75;;;7.53;;
9815;SDS011;4947;44.526;11.360;2023-04-06T21:01:12;13.55;;;7.07;;
9815;SDS011;4947;44.526;11.360;2023-04-06T21:03:40;14.77;;;8.80;;
9815;SDS011;4947;44.526;11.360;2023-04-06T21:06:08;13.70;;;7.50;;
9815;SDS011;4947;44.526;11.360;2023-04-06T21:08:36;21.40;;;8.05;;
9815;SDS011;4947;44.526;11.360;2023-04-06T21:11:06;14.20;;;7.30;;
9815;SDS011;4947;44.526;11.360;2023-04-06T21:13:34;14.68;;;7.97;;
9815;SDS011;4947;44.526;11.360;2023-04-06T21:16:02;15.90;;;7.72;;
9815;SDS011;4947;44.526;11.360;2023-04-06T21:18:29;14.75;;;7.03;;
9815;SDS011;4947;44.526;11.360;2023-04-06T21:20:57;13.68;;;7.13;;
9815;SDS011;4947;44.526;11.360;2023-04-06T21:23:25;18.17;;;7.25;;
9815;SDS011;4947;44.526;11.360;2023-04-06T21:25:53;18.77;;;8.02;;
9815;SDS011;4947;44.526;11.360;2023-04-06T21:28:22;18.63;;;8.32;;
9815;SDS011;4947;44.526;11.360;2023-04-06T21:30:54;15.73;;;7.05;;
9815;SDS011;4947;44.526;11.360;2023-04-06T21:33:22;9.05;;;6.88;;
9815;SDS011;4947;44.526;11.360;2023-04-06T21:35:49;12.15;;;8.50;;
9815;SDS011;4947;44.526;11.360;2023-04-06T21:38:17;16.83;;;8.30;;
9815;SDS011;4947;44.526;11.360;2023-04-06T21:40:52;14.68;;;7.82;;
9815;SDS011;4947;44.526;11.360;2023-04-06T21:43:20;15.27;;;7.23;;
9815;SDS011;4947;44.526;11.360;2023-04-06T21:45:49;16.08;;;8.05;;
9815;SDS011;4947;44.526;11.360;2023-04-06T21:48:17;14.53;;;8.10;;
9815;SDS011;4947;44.526;11.360;2023-04-06T21:50:45;13.98;;;8.40;;
9815;SDS011;4947;44.526;11.360;2023-04-06T21:53:12;15.10;;;7.97;;
9815;SDS011;4947;44.526;11.360;2023-04-06T21:55:42;19.40;;;7.95;;
9815;SDS011;4947;44.526;11.360;2023-04-06T21:58:09;9.30;;;6.82;;
9815;SDS011;4947;44.526;11.360;2023-04-06T22:00:37;13.98;;;7.50;;
9815;SDS011;4947;44.526;11.360;2023-04-06T22:03:06;18.33;;;7.45;;
9815;SDS011;4947;44.526;11.360;2023-04-06T22:05:34;11.88;;;7.25;;
9815;SDS011;4947;44.526;11.360;2023-04-06T22:08:04;13.70;;;7.05;;
9815;SDS011;4947;44.526;11.360;2023-04-06T22:10:32;17.55;;;7.32;;
9815;SDS011;4947;44.526;11.360;2023-04-06T22:13:00;15.13;;;8.30;;
9815;SDS011;4947;44.526;11.360;2023-04-06T22:15:27;14.13;;;7.10;;
9815;SDS011;4947;44.526;11.360;2023-04-06T22:17:56;16.65;;;7.70;;
9815;SDS011;4947;44.526;11.360;2023-04-06T22:20:25;12.00;;;7.45;;
9815;SDS011;4947;44.526;11.360;2023-04-06T22:22:53;14.13;;;7.40;;
9815;SDS011;4947;44.526;11.360;2023-04-06T22:25:21;13.05;;;7.50;;
9815;SDS011;4947;44.526;11.360;2023-04-06T22:27:49;11.60;;;7.05;;
9815;SDS011;4947;44.526;11.360;2023-04-06T22:30:16;9.15;;;7.00;;
9815;SDS011;4947;44.526;11.360;2023-04-06T22:32:44;14.00;;;7.37;;
9815;SDS011;4947;44.526;11.360;2023-04-06T22:35:11;10.90;;;6.97;;
9815;SDS011;4947;44.526;11.360;2023-04-06T22:37:42;14.97;;;7.10;;
9815;SDS011;4947;44.526;11.360;2023-04-06T22:40:10;14.77;;;7.38;;